Time;durP1;ratioP1;P1;durP2;ratioP2;P2;SDS_P1;SDS_P2;PMS_P1;PMS_P2;Temp;Humidity;BMP_temperature;BMP_pressure;BME280_temperature;BME280_humidity;BME280_pressure;Samples;Min_cycle;Max_cycle;Signal;HPM_P1;HPM_P2
2022/09/25 00:01:17;;;;;;;7.60;5.60;;;;;;;13.60;65.82;99641.69;4361648;32;33617;-75
2022/09/25 00:03:46;;;;;;;7.53;5.15;;;;;;;13.63;65.66;99636.50;4348102;32;34620;-74
2022/09/25 00:06:15;;;;;;;7.60;5.82;;;;;;;13.85;65.02;99638.16;4347849;32;34993;-74
2022/09/25 00:08:43;;;;;;;7.10;5.45;;;;;;;13.73;65.30;99627.50;4361219;32;34952;-73
2022/09/25 00:11:14;;;;;;;6.85;5.45;;;;;;;13.61;65.88;99630.50;4360810;32;33520;-74
2022/09/25 00:13:43;;;;;;;7.43;5.55;;;;;;;13.88;64.98;99626.69;4360853;32;34015;-74
2022/09/25 00:16:13;;;;;;;6.93;5.32;;;;;;;14.14;64.12;99624.75;4360568;32;34261;-74
2022/09/25 00:21:30;;;;;;;8.27;6.47;;;;;;;14.31;63.44;99622.53;4360829;32;33769;-73
2022/09/25 00:23:59;;;;;;;10.73;6.50;;;;;;;14.05;64.66;99620.94;4347844;32;33905;-73
2022/09/25 00:26:28;;;;;;;9.45;6.43;;;;;;;14.05;65.11;99618.22;4359875;32;34007;-74
2022/09/25 00:28:59;;;;;;;8.45;6.25;;;;;;;13.93;65.43;99613.03;4360203;32;34525;-73
2022/09/25 00:31:28;;;;;;;9.52;5.95;;;;;;;13.20;67.93;99615.97;4360889;32;33444;-74
2022/09/25 00:33:57;;;;;;;8.35;6.18;;;;;;;13.59;66.73;99612.78;4361578;32;34081;-74
2022/09/25 00:36:25;;;;;;;9.43;6.15;;;;;;;13.67;66.50;99618.53;4347616;32;34925;-74
2022/09/25 00:38:53;;;;;;;9.63;7.00;;;;;;;13.74;66.33;99613.59;4347772;32;35061;-75
2022/09/25 00:41:22;;;;;;;8.85;5.87;;;;;;;13.14;68.37;99612.41;4361126;32;33843;-73
2022/09/25 00:43:53;;;;;;;9.90;6.35;;;;;;;14.14;65.11;99608.38;4360750;32;34652;-74
2022/09/25 00:46:26;;;;;;;7.28;5.97;;;;;;;13.87;66.19;99611.44;4347931;32;33757;-73
2022/09/25 00:48:59;;;;;;;8.07;5.72;;;;;;;14.12;65.54;99608.66;4361081;32;35104;-74
2022/09/25 00:51:33;;;;;;;6.93;5.68;;;;;;;14.27;64.61;99610.53;4361377;32;33589;-74
2022/09/25 00:54:03;;;;;;;9.77;6.37;;;;;;;13.61;67.00;99608.69;4348149;32;34845;-74
2022/09/25 00:56:35;;;;;;;8.32;6.20;;;;;;;14.01;65.71;99603.50;4360914;32;34360;-73
2022/09/25 00:59:03;;;;;;;7.40;5.53;;;;;;;13.66;67.00;99603.25;4348734;32;35196;-74
2022/09/25 01:01:31;;;;;;;9.00;6.00;;;;;;;13.94;66.13;99606.50;4349268;32;34576;-73
2022/09/25 01:03:58;;;;;;;7.72;5.40;;;;;;;14.06;65.69;99598.84;4363030;32;33941;-74
2022/09/25 01:06:26;;;;;;;9.70;6.55;;;;;;;14.20;65.24;99607.28;4349154;32;34339;-74
2022/09/25 01:08:54;;;;;;;9.32;6.28;;;;;;;13.98;66.07;99604.87;4349377;32;34388;-74
2022/09/25 01:11:21;;;;;;;7.75;5.72;;;;;;;13.87;66.65;99605.97;4349667;32;34440;-75
2022/09/25 01:13:53;;;;;;;7.40;5.30;;;;;;;13.50;67.68;99598.88;4362781;32;33876;-74
2022/09/25 01:16:29;;;;;;;9.23;5.87;;;;;;;13.50;68.02;99596.16;4362222;32;35115;-74
2022/09/25 01:19:07;;;;;;;7.80;6.10;;;;;;;13.93;66.45;99593.94;4362908;32;33817;-74
2022/09/25 01:21:50;;;;;;;7.78;5.28;;;;;;;13.79;67.10;99598.34;4362764;32;33854;-74
2022/09/25 01:24:43;;;;;;;8.23;5.68;;;;;;;13.94;66.61;99598.31;4349468;32;34504;-74
2022/09/25 01:27:29;;;;;;;7.97;6.07;;;;;;;14.06;66.06;99596.13;4348786;32;34233;-74
2022/09/25 01:30:07;;;;;;;8.32;5.93;;;;;;;14.15;65.82;99596.37;4361979;32;34126;-74
2022/09/25 01:32:55;;;;;;;8.98;6.62;;;;;;;14.01;66.12;99593.38;4349062;32;33840;-74
2022/09/25 01:35:41;;;;;;;9.27;6.60;;;;;;;14.27;65.35;99607.78;4340987;32;33930;-74
2022/09/25 01:38:22;;;;;;;8.07;5.87;;;;;;;14.32;65.26;99604.25;4362932;32;33760;-74
2022/09/25 01:41:00;;;;;;;8.88;6.18;;;;;;;13.92;66.71;99604.03;4362704;32;34209;-75
2022/09/25 01:43:35;;;;;;;8.77;6.20;;;;;;;13.83;66.91;99597.50;4349023;32;33666;-74
2022/09/25 01:46:12;;;;;;;;;;;;;;;14.10;66.31;99599.94;4349204;32;33665;-74
2022/09/25 01:48:41;;;;;;;10.55;6.50;;;;;;;14.35;65.12;99599.03;4362835;32;34344;-74
2022/09/25 01:51:21;;;;;;;8.48;6.18;;;;;;;13.37;68.73;99602.13;4349271;32;34138;-74
2022/09/25 01:53:55;;;;;;;8.68;6.12;;;;;;;14.06;66.42;99598.84;4349262;32;34577;-74
2022/09/25 01:56:32;;;;;;;8.25;6.53;;;;;;;14.09;66.11;99597.47;4348678;32;34772;-75
2022/09/25 01:59:15;;;;;;;9.50;7.03;;;;;;;13.87;66.96;99589.59;4349452;32;33915;-73
2022/09/25 02:01:43;;;;;;;8.98;6.55;;;;;;;14.53;64.59;99586.69;4362146;32;34247;-74
2022/09/25 02:04:22;;;;;;;7.82;6.03;;;;;;;14.21;65.34;99589.81;4349250;32;33729;-74
2022/09/25 02:06:50;;;;;;;8.27;6.55;;;;;;;13.89;66.74;99584.69;4362162;32;34673;-74
2022/09/25 02:09:25;;;;;;;9.35;6.60;;;;;;;14.06;65.51;99587.09;4362393;32;34986;-74
2022/09/25 02:11:56;;;;;;;10.18;6.47;;;;;;;13.32;68.60;99581.94;4349227;32;34208;-74
2022/09/25 02:14:43;;;;;;;8.43;6.68;;;;;;;13.18;68.95;99577.28;4362462;32;33223;-74
2022/09/25 02:20:30;;;;;;;8.20;6.40;;;;;;;13.80;66.66;99586.31;4348489;32;34016;-74
2022/09/25 02:22:51;;;;;;;9.27;6.65;;;;;;;13.93;65.88;99586.59;4351159;32;33828;-74
2022/09/25 02:25:40;;;;;;;8.52;6.15;;;;;;;13.94;65.66;99592.88;4362392;32;33879;-74
2022/09/25 02:28:08;;;;;;;8.88;6.87;;;;;;;13.14;68.24;99596.87;4348762;32;34304;-74
2022/09/25 02:30:36;;;;;;;11.40;6.70;;;;;;;13.98;65.53;99598.59;4361961;32;35011;-75
2022/09/25 02:33:04;;;;;;;8.10;6.07;;;;;;;13.38;67.68;99601.06;4362221;32;33388;-74
2022/09/25 02:35:31;;;;;;;8.27;6.15;;;;;;;13.56;67.13;99597.78;4362595;32;34475;-74
2022/09/25 02:37:59;;;;;;;8.38;6.47;;;;;;;13.85;65.72;99589.87;4362113;32;34823;-74
2022/09/25 02:40:35;;;;;;;9.13;6.45;;;;;;;13.29;67.79;99587.94;4362294;32;35101;-74
2022/09/25 02:43:11;;;;;;;9.63;6.03;;;;;;;13.30;68.10;99586.03;4349027;32;35086;-74
2022/09/25 02:45:54;;;;;;;7.47;6.22;;;;;;;13.58;66.86;99590.16;4362098;32;34558;-74
2022/09/25 02:48:40;;;;;;;7.68;5.97;;;;;;;13.69;66.26;99589.06;4361984;32;34157;-74
2022/09/25 02:51:16;;;;;;;7.68;5.40;;;;;;;13.98;65.31;99584.97;4348860;32;34157;-74
2022/09/25 02:53:59;;;;;;;11.10;7.00;;;;;;;13.14;67.51;99590.63;4349013;32;34492;-74
2022/09/25 02:56:27;;;;;;;10.50;6.80;;;;;;;13.25;67.48;99577.84;4362165;32;34164;-74
2022/09/25 02:58:57;;;;;;;13.20;8.20;;;;;;;12.84;69.08;99581.28;4361996;32;34100;-74
2022/09/25 03:01:26;;;;;;;11.15;6.95;;;;;;;12.83;69.18;99576.94;4361839;32;34773;-74
2022/09/25 03:03:56;;;;;;;9.40;7.00;;;;;;;13.27;67.95;99578.38;4362061;32;34822;-74
2022/09/25 03:06:24;;;;;;;9.55;7.25;;;;;;;13.41;67.05;99581.41;4348781;32;34643;-74
2022/09/25 03:08:55;;;;;;;13.52;7.30;;;;;;;13.37;67.43;99581.16;4361981;32;34547;-74
2022/09/25 03:11:25;;;;;;;11.23;6.43;;;;;;;13.38;67.75;99571.06;4362177;32;34281;-74
2022/09/25 03:14:01;;;;;;;11.38;7.50;;;;;;;13.06;68.80;99566.63;4348708;32;34206;-74
2022/09/25 03:16:45;;;;;;;11.70;7.85;;;;;;;12.85;69.94;99569.31;4361898;32;33457;-74
2022/09/25 03:19:13;;;;;;;10.52;7.75;;;;;;;13.48;67.81;99576.53;4348844;32;34857;-74
2022/09/25 03:21:41;;;;;;;10.18;6.85;;;;;;;13.16;68.76;99566.66;4360630;32;34276;-73
2022/09/25 03:24:08;;;;;;;9.98;7.10;;;;;;;12.89;70.03;99575.88;4362171;32;34054;-74
2022/09/25 03:26:36;;;;;;;10.60;6.80;;;;;;;13.07;69.48;99565.56;4361865;32;34514;-74
2022/09/25 03:29:05;;;;;;;9.82;6.62;;;;;;;13.27;68.84;99562.84;4361865;32;35238;-74
2022/09/25 03:31:33;;;;;;;12.20;7.45;;;;;;;13.40;68.34;99560.72;4362446;32;33993;-74
2022/09/25 03:34:00;;;;;;;13.02;7.82;;;;;;;13.59;67.51;99566.44;4362153;32;35586;-75
2022/09/25 03:36:29;;;;;;;10.25;7.12;;;;;;;13.02;69.58;99560.91;4362079;32;32946;-74
2022/09/25 03:38:57;;;;;;;11.70;8.48;;;;;;;13.40;68.25;99558.81;4362090;32;34631;-75
2022/09/25 03:41:28;;;;;;;10.50;7.45;;;;;;;13.08;69.49;99562.56;4348222;32;34787;-74
2022/09/25 03:43:56;;;;;;;11.35;7.55;;;;;;;13.26;68.87;99563.97;4347971;32;34116;-74
2022/09/25 03:46:25;;;;;;;10.68;7.65;;;;;;;13.41;68.25;99568.63;4361993;32;34331;-73
2022/09/25 03:48:53;;;;;;;11.70;7.85;;;;;;;13.70;67.29;99574.34;4361572;32;33977;-74
2022/09/25 03:51:22;;;;;;;15.52;8.95;;;;;;;13.37;67.92;99575.72;4361810;32;34335;-73
2022/09/25 03:53:50;;;;;;;15.25;9.05;;;;;;;13.30;68.28;99589.59;4361979;32;34925;-73
2022/09/25 03:56:20;;;;;;;13.50;8.30;;;;;;;13.51;68.03;99590.41;4361709;32;33505;-74
2022/09/25 03:58:49;;;;;;;12.52;8.77;;;;;;;13.60;67.41;99589.87;4361249;32;34528;-74
2022/09/25 04:01:18;;;;;;;14.27;9.30;;;;;;;13.20;68.87;99588.75;4361694;32;34197;-74
2022/09/25 04:03:46;;;;;;;14.70;10.15;;;;;;;13.43;68.35;99592.88;4348144;32;34283;-74
2022/09/25 04:06:17;;;;;;;15.30;9.38;;;;;;;12.40;73.03;99591.75;4361734;32;33601;-74
2022/09/25 04:08:46;;;;;;;14.48;9.88;;;;;;;13.15;69.80;99586.81;4361684;32;33799;-74
2022/09/25 04:11:16;;;;;;;14.15;9.38;;;;;;;13.08;70.29;99589.78;4361617;32;34975;-73
2022/09/25 04:13:44;;;;;;;16.33;9.70;;;;;;;13.32;69.62;99584.69;4348269;32;34813;-74
2022/09/25 04:16:12;;;;;;;15.93;9.25;;;;;;;13.24;70.06;99587.09;4348128;32;34007;-74
2022/09/25 04:18:41;;;;;;;13.13;9.18;;;;;;;13.25;69.91;99578.66;4348144;32;33725;-72
2022/09/25 04:21:11;;;;;;;12.43;8.77;;;;;;;12.79;72.15;99577.75;4336001;32;34123;-73
2022/09/25 04:23:39;;;;;;;12.20;8.02;;;;;;;13.29;69.84;99573.53;4358991;32;34240;-72
2022/09/25 04:26:07;;;;;;;12.40;8.80;;;;;;;13.52;68.87;99569.47;4360041;32;34587;-73
2022/09/25 04:28:35;;;;;;;11.12;7.87;;;;;;;13.54;68.99;99576.25;4361467;32;33112;-72
2022/09/25 04:31:03;;;;;;;14.55;8.38;;;;;;;13.56;68.86;99570.50;4361070;32;34620;-73
2022/09/25 04:33:46;;;;;;;12.27;8.05;;;;;;;13.47;69.36;99566.72;4361140;32;33900;-72
2022/09/25 04:36:15;;;;;;;11.63;7.55;;;;;;;13.75;68.21;99573.50;4360984;32;34147;-74
2022/09/25 04:38:43;;;;;;;11.63;8.05;;;;;;;13.50;69.49;99571.63;4361150;32;33786;-75
2022/09/25 04:41:10;;;;;;;12.82;8.10;;;;;;;13.66;69.16;99565.06;4352758;32;35023;-72
2022/09/25 04:43:40;;;;;;;13.18;8.90;;;;;;;13.29;70.64;99565.34;4347009;32;34902;-72
2022/09/25 04:46:10;;;;;;;13.98;8.65;;;;;;;13.78;68.98;99572.97;4353838;32;33777;-74
2022/09/25 04:48:46;;;;;;;14.35;9.25;;;;;;;13.47;69.85;99572.97;4352606;32;34491;-74
2022/09/25 04:51:14;;;;;;;14.87;8.65;;;;;;;14.02;67.83;99575.94;4348345;32;35077;-73
2022/09/25 04:53:41;;;;;;;14.55;9.15;;;;;;;13.59;69.48;99583.63;4346364;33;34473;-74
2022/09/25 04:56:12;;;;;;;12.90;8.45;;;;;;;13.84;68.67;99582.78;4346688;33;33740;-75
2022/09/25 04:58:45;;;;;;;12.18;8.48;;;;;;;13.56;69.86;99584.16;4345999;33;33850;-73
2022/09/25 05:01:12;;;;;;;13.95;8.13;;;;;;;13.52;70.33;99585.81;4341577;32;34970;-74
2022/09/25 05:03:40;;;;;;;12.00;9.18;;;;;;;13.40;70.82;99587.97;4360794;32;34331;-73
2022/09/25 05:06:07;;;;;;;19.42;11.63;;;;;;;13.22;71.32;99587.38;4361059;32;33729;-74
2022/09/25 05:08:35;;;;;;;18.50;10.40;;;;;;;13.07;72.07;99582.72;4360845;32;33954;-74
2022/09/25 05:11:02;;;;;;;18.42;11.07;;;;;;;13.30;71.28;99581.44;4360598;32;35056;-74
2022/09/25 05:13:30;;;;;;;15.40;9.88;;;;;;;13.45;70.77;99577.06;4360704;32;33797;-75
2022/09/25 05:15:58;;;;;;;16.70;10.25;;;;;;;13.46;70.84;99579.53;4361167;32;33957;-73
2022/09/25 05:18:25;;;;;;;17.87;9.65;;;;;;;13.40;71.14;99577.06;4360420;32;34814;-73
2022/09/25 05:20:53;;;;;;;15.48;10.07;;;;;;;13.84;69.81;99576.50;4360567;32;34239;-75
2022/09/25 05:23:20;;;;;;;16.20;9.23;;;;;;;13.94;69.22;99577.31;4360495;32;33902;-74
2022/09/25 05:25:57;;;;;;;17.15;10.63;;;;;;;13.97;69.28;99581.37;4360614;32;33627;-75
2022/09/25 05:28:24;;;;;;;14.85;9.88;;;;;;;13.73;70.62;99573.78;4360828;32;33942;-75
2022/09/25 05:30:52;;;;;;;14.27;10.43;;;;;;;14.30;68.60;99584.63;4360532;32;34919;-75
2022/09/25 05:33:20;;;;;;;17.60;10.38;;;;;;;14.34;68.20;99583.78;4360787;32;34133;-74
2022/09/25 05:35:47;;;;;;;15.77;10.77;;;;;;;13.72;71.01;99576.81;4360980;32;33871;-74
2022/09/25 05:38:15;;;;;;;15.73;10.40;;;;;;;13.90;70.49;99578.12;4360271;32;33868;-74
2022/09/25 05:40:42;;;;;;;13.00;9.73;;;;;;;14.03;70.10;99582.22;4360382;32;34250;-76
2022/09/25 05:43:11;;;;;;;14.95;10.00;;;;;;;14.32;69.17;99591.44;4360550;32;34316;-75
2022/09/25 05:45:38;;;;;;;16.58;10.85;;;;;;;14.23;69.69;99593.06;4362577;32;34340;-76
2022/09/25 05:48:07;;;;;;;13.70;10.35;;;;;;;14.23;70.12;99597.72;4362375;32;34641;-75
2022/09/25 05:50:35;;;;;;;15.27;10.75;;;;;;;14.19;70.61;99599.34;4362774;32;34240;-75
2022/09/25 05:53:04;;;;;;;13.50;10.30;;;;;;;13.93;71.80;99597.50;4362578;32;34259;-75
2022/09/25 05:55:31;;;;;;;13.68;9.95;;;;;;;13.79;72.81;99603.78;4362582;32;33542;-76
2022/09/25 05:58:01;;;;;;;16.67;10.20;;;;;;;13.64;73.31;99596.44;4362335;32;34253;-74
2022/09/25 06:00:31;;;;;;;15.60;10.15;;;;;;;13.55;72.62;99593.44;4362567;32;34392;-76
2022/09/25 06:03:00;;;;;;;13.38;9.55;;;;;;;13.82;71.48;99595.88;4349428;32;34610;-75
2022/09/25 06:05:28;;;;;;;13.80;9.88;;;;;;;14.36;69.48;99599.84;4362671;32;34652;-75
2022/09/25 06:07:56;;;;;;;15.23;10.48;;;;;;;14.55;68.95;99600.09;4362260;32;33787;-75
2022/09/25 06:10:25;;;;;;;12.48;9.73;;;;;;;14.32;70.02;99607.78;4362511;32;34291;-75
2022/09/25 06:12:59;;;;;;;13.43;9.25;;;;;;;14.31;70.71;99618.97;4362973;32;34261;-75
2022/09/25 06:15:28;;;;;;;15.85;10.88;;;;;;;14.46;69.74;99618.94;4362757;32;34677;-76
2022/09/25 06:17:56;;;;;;;12.00;9.18;;;;;;;14.75;68.43;99619.16;4362541;32;34063;-75
2022/09/25 06:20:23;;;;;;;13.05;9.63;;;;;;;14.68;69.12;99620.53;4362450;32;34073;-74
2022/09/25 06:22:55;;;;;;;16.73;11.77;;;;;;;14.88;68.49;99625.09;4362256;32;35007;-75
2022/09/25 06:25:25;;;;;;;16.83;11.65;;;;;;;14.87;68.75;99620.72;4362493;32;33219;-75
2022/09/25 06:27:53;;;;;;;15.15;11.68;;;;;;;14.84;69.19;99615.81;4361938;32;33866;-76
2022/09/25 06:30:23;;;;;;;17.12;12.52;;;;;;;14.49;70.06;99621.13;4362439;32;34290;-75
2022/09/25 06:32:56;;;;;;;15.75;12.48;;;;;;;14.49;70.31;99620.28;4362848;32;34077;-75
2022/09/25 06:35:24;;;;;;;17.70;11.55;;;;;;;14.52;70.58;99619.75;4362452;32;34592;-74
2022/09/25 06:37:55;;;;;;;14.80;10.13;;;;;;;14.53;70.82;99619.44;4362106;32;34838;-76
2022/09/25 06:40:26;;;;;;;13.00;9.85;;;;;;;14.68;69.30;99615.06;4348768;32;34190;-75
2022/09/25 06:42:58;;;;;;;13.00;10.13;;;;;;;14.69;68.32;99625.72;4362380;32;34217;-76
2022/09/25 06:45:28;;;;;;;12.95;10.43;;;;;;;14.82;67.66;99631.69;4349383;32;34477;-75
2022/09/25 06:48:12;;;;;;;12.52;10.20;;;;;;;14.22;68.97;99628.84;4361827;32;33826;-74
2022/09/25 06:50:42;;;;;;;15.75;9.65;;;;;;;14.45;68.39;99628.25;4362451;32;35083;-75
2022/09/25 06:53:10;;;;;;;12.37;9.75;;;;;;;14.78;67.46;99623.22;4362150;32;34385;-75
2022/09/25 06:55:37;;;;;;;12.48;8.90;;;;;;;14.98;66.77;99627.78;4362452;32;33535;-75
2022/09/25 06:58:07;;;;;;;12.85;8.73;;;;;;;15.22;65.89;99625.19;4362050;32;33965;-76
2022/09/25 07:00:34;;;;;;;11.65;8.98;;;;;;;15.26;65.72;99620.78;4361658;32;33781;-74
2022/09/25 07:05:48;;;;;;;13.70;10.38;;;;;;;14.31;68.21;99632.63;4361722;32;33877;-74
2022/09/25 07:08:19;;;;;;;13.18;9.98;;;;;;;14.39;68.96;99629.34;4358691;32;34703;-74
2022/09/25 07:10:51;;;;;;;12.52;10.27;;;;;;;14.73;69.24;99617.81;4362129;32;35063;-74
2022/09/25 07:13:23;;;;;;;13.90;10.13;;;;;;;14.69;68.31;99614.81;4362726;32;34271;-75
2022/09/25 07:15:52;;;;;;;12.20;10.38;;;;;;;14.22;70.27;99626.91;4347903;32;34675;-73
2022/09/25 07:18:21;;;;;;;13.02;9.45;;;;;;;14.35;70.00;99615.41;4361567;32;34434;-74
2022/09/25 07:20:49;;;;;;;12.90;9.95;;;;;;;14.87;68.10;99610.63;4360650;32;34189;-75
2022/09/25 07:23:18;;;;;;;11.98;9.55;;;;;;;14.92;67.71;99617.97;4361980;32;34949;-74
2022/09/25 07:25:46;;;;;;;13.07;9.57;;;;;;;14.82;68.14;99621.56;4361982;32;33568;-75
2022/09/25 07:28:14;;;;;;;15.25;10.20;;;;;;;15.32;66.30;99625.13;4361688;32;33954;-74
2022/09/25 07:30:42;;;;;;;11.85;9.77;;;;;;;15.47;65.67;99626.94;4362026;32;34208;-74
2022/09/25 07:33:10;;;;;;;14.70;9.60;;;;;;;15.29;65.69;99617.50;4361869;32;34159;-75
2022/09/25 07:35:38;;;;;;;13.25;10.35;;;;;;;15.49;65.61;99621.19;4361384;32;34622;-74
2022/09/25 07:38:06;;;;;;;14.27;9.82;;;;;;;15.49;66.03;99618.47;4361585;32;34262;-74
2022/09/25 07:40:34;;;;;;;13.15;9.68;;;;;;;15.68;65.52;99619.41;4361566;32;34093;-75
2022/09/25 07:43:02;;;;;;;13.52;8.63;;;;;;;15.95;65.60;99613.44;4362025;32;35021;-74
2022/09/25 07:45:30;;;;;;;10.55;6.70;;;;;;;15.60;67.51;99614.53;4348581;32;33783;-75
2022/09/25 07:48:01;;;;;;;7.53;4.47;;;;;;;16.26;64.21;99612.31;4348067;32;33433;-74
2022/09/25 07:50:30;;;;;;;6.97;4.37;;;;;;;16.87;59.59;99611.66;4361532;32;33987;-74
2022/09/25 07:52:58;;;;;;;6.45;4.40;;;;;;;17.13;59.55;99595.69;4361670;32;35080;-74
2022/09/25 07:55:27;;;;;;;6.82;4.30;;;;;;;16.84;60.73;99592.25;4362034;32;33869;-74
2022/09/25 07:57:55;;;;;;;6.28;3.75;;;;;;;16.91;59.26;99593.53;4361382;32;34131;-74
2022/09/25 08:00:23;;;;;;;10.02;6.10;;;;;;;17.53;58.24;99587.13;4361728;32;35048;-76
2022/09/25 08:02:57;;;;;;;6.60;4.40;;;;;;;17.12;58.22;99598.72;4361482;32;35074;-75
2022/09/25 08:05:25;;;;;;;6.85;4.12;;;;;;;17.40;57.20;99594.19;4361549;32;33370;-74
2022/09/25 08:07:53;;;;;;;12.77;9.30;;;;;;;17.16;57.47;99589.59;4360647;32;34723;-75
2022/09/25 08:10:21;;;;;;;12.40;8.50;;;;;;;17.24;56.44;99590.88;4361804;32;34272;-74
2022/09/25 08:12:48;;;;;;;7.12;5.45;;;;;;;16.92;58.03;99586.91;4361749;32;34011;-74
2022/09/25 08:15:16;;;;;;;7.25;4.80;;;;;;;17.13;57.66;99586.66;4361650;32;34394;-76
2022/09/25 08:17:44;;;;;;;6.75;4.22;;;;;;;17.26;57.56;99594.12;4360157;32;33881;-75
2022/09/25 08:20:11;;;;;;;5.32;3.50;;;;;;;17.25;57.55;99591.66;4361883;32;35127;-75
2022/09/25 08:22:39;;;;;;;4.10;3.25;;;;;;;17.40;57.18;99589.50;4361109;32;34190;-74
2022/09/25 08:25:06;;;;;;;6.97;3.40;;;;;;;17.48;56.16;99596.25;4361297;32;34494;-74
2022/09/25 08:27:44;;;;;;;5.70;3.28;;;;;;;17.48;56.89;99595.44;4361001;32;34769;-76
2022/09/25 08:30:12;;;;;;;5.28;3.03;;;;;;;17.55;56.29;99613.13;4361499;32;34012;-76
2022/09/25 08:32:40;;;;;;;4.80;2.95;;;;;;;17.65;55.93;99606.69;4361499;32;34306;-75
2022/09/25 08:35:07;;;;;;;5.18;3.90;;;;;;;17.67;56.56;99607.19;4361639;32;34384;-76
2022/09/25 08:37:40;;;;;;;7.55;6.00;;;;;;;17.66;55.54;99602.81;4360964;32;33770;-74
2022/09/25 08:40:19;;;;;;;5.07;3.65;;;;;;;17.67;55.33;99607.19;4361063;32;34864;-75
2022/09/25 08:42:48;;;;;;;4.45;2.97;;;;;;;17.63;55.46;99612.47;4347590;32;34283;-76
2022/09/25 08:51:08;;;;;;;3.12;2.17;;;;;;;17.58;54.82;99593.34;4346355;32;34042;-74
2022/09/25 08:53:37;;;;;;;3.53;2.40;;;;;;;17.67;55.01;99598.13;4347659;32;35008;-75
2022/09/25 08:56:16;;;;;;;2.97;2.20;;;;;;;17.34;56.39;99598.09;4361221;32;33926;-74
2022/09/25 08:59:00;;;;;;;3.62;2.12;;;;;;;17.66;55.24;99600.06;4333799;33;34097;-75
2022/09/25 09:01:35;;;;;;;3.80;2.28;;;;;;;17.43;55.61;99599.88;4332731;33;34173;-76
2022/09/25 09:04:31;;;;;;;3.15;2.22;;;;;;;17.68;54.61;99597.03;4333195;33;34549;-75
2022/09/25 09:07:04;;;;;;;3.83;2.05;;;;;;;17.50;56.08;99605.00;4339761;32;34128;-76
2022/09/25 09:10:08;;;;;;;4.30;2.75;;;;;;;17.47;56.06;99605.56;4349601;32;33602;-76
2022/09/25 09:12:39;;;;;;;3.78;2.53;;;;;;;17.70;56.13;99606.59;4347376;32;34215;-74
2022/09/25 09:15:31;;;;;;;3.62;2.30;;;;;;;17.95;54.67;99615.56;4347480;32;34187;-74
2022/09/25 09:18:04;;;;;;;3.45;2.47;;;;;;;18.00;53.80;99618.19;4346516;32;34256;-76
2022/09/25 09:20:40;;;;;;;2.83;1.95;;;;;;;18.05;54.12;99612.59;4361879;32;33755;-75
2022/09/25 09:23:12;;;;;;;2.75;2.03;;;;;;;18.01;54.41;99606.09;4344223;32;34940;-75
2022/09/25 09:26:01;;;;;;;5.22;2.10;;;;;;;17.89;55.21;99611.25;4349253;32;33934;-75
2022/09/25 09:28:43;;;;;;;4.15;2.67;;;;;;;18.08;55.35;99616.69;4362743;32;34085;-75
2022/09/25 09:31:15;;;;;;;5.68;3.45;;;;;;;17.99;54.93;99613.81;4348107;32;34529;-74
2022/09/25 09:33:48;;;;;;;5.22;2.53;;;;;;;17.99;54.21;99611.91;4348030;33;35156;-75
2022/09/25 09:36:30;;;;;;;5.37;2.97;;;;;;;17.91;53.68;99607.09;4347797;33;34104;-74
2022/09/25 09:39:24;;;;;;;5.47;3.40;;;;;;;17.92;53.46;99613.41;4347814;33;33760;-75
2022/09/25 09:41:58;;;;;;;4.70;3.45;;;;;;;17.89;53.94;99614.00;4354031;32;32802;-75
2022/09/25 09:44:48;;;;;;;4.18;2.30;;;;;;;17.67;54.66;99611.84;4359434;32;34313;-76
2022/09/25 09:47:46;;;;;;;3.40;2.03;;;;;;;17.58;54.93;99611.72;4356785;32;35012;-75
2022/09/25 09:50:29;;;;;;;3.45;2.30;;;;;;;17.35;55.87;99607.97;4359702;32;34551;-74
2022/09/25 09:53:07;;;;;;;2.87;2.15;;;;;;;17.26;56.53;99615.25;4348838;32;33368;-75
2022/09/25 09:55:57;;;;;;;8.77;4.32;;;;;;;17.19;57.32;99608.22;4348876;32;34160;-74
2022/09/25 09:58:43;;;;;;;9.52;5.40;;;;;;;17.33;57.95;99597.31;4346968;32;35533;-75
2022/09/25 10:01:13;;;;;;;19.00;10.02;;;;;;;17.39;59.28;99606.28;4348852;32;33441;-75
2022/09/25 10:04:05;;;;;;;14.02;6.47;;;;;;;17.56;58.98;99592.03;4351234;32;34842;-74
2022/09/25 10:06:37;;;;;;;4.70;2.53;;;;;;;17.60;58.99;99601.25;4348801;32;34206;-75
2022/09/25 10:09:07;;;;;;;4.03;2.70;;;;;;;17.13;60.31;99605.84;4348555;32;33984;-75
2022/09/25 10:11:36;;;;;;;3.05;2.47;;;;;;;17.22;60.95;99604.06;4362269;32;33462;-74
2022/09/25 10:14:03;;;;;;;3.75;2.40;;;;;;;17.22;61.20;99612.28;4348865;32;34682;-74
2022/09/25 10:16:31;;;;;;;4.37;2.72;;;;;;;17.50;60.79;99606.94;4348896;32;34156;-74
2022/09/25 10:19:10;;;;;;;4.18;2.75;;;;;;;17.70;60.17;99606.59;4348883;32;34003;-73
2022/09/25 10:21:46;;;;;;;5.25;2.90;;;;;;;17.91;59.77;99607.09;4362466;32;34218;-74
2022/09/25 10:25:01;;;;;;;4.62;2.95;;;;;;;17.35;62.09;99611.53;4348927;32;34633;-74
2022/09/25 10:27:35;;;;;;;6.97;3.55;;;;;;;17.44;61.80;99611.66;4352719;32;34106;-74
2022/09/25 10:30:05;;;;;;;5.80;3.08;;;;;;;17.72;60.94;99609.03;4361724;32;34084;-74
2022/09/25 10:33:07;;;;;;;6.78;3.05;;;;;;;17.76;60.81;99610.06;4362344;32;33537;-74
2022/09/25 10:35:37;;;;;;;6.30;3.75;;;;;;;17.75;60.58;99611.19;4330981;32;33807;-74
2022/09/25 10:38:18;;;;;;;6.40;3.60;;;;;;;17.31;61.48;99607.75;4362067;32;34085;-73
2022/09/25 10:40:56;;;;;;;6.35;3.37;;;;;;;17.63;60.50;99595.19;4362245;32;34123;-74
2022/09/25 10:43:24;;;;;;;6.87;3.67;;;;;;;17.29;61.02;99598.19;4348889;32;33696;-74
2022/09/25 10:46:14;;;;;;;5.07;3.25;;;;;;;17.58;61.60;99603.50;4362100;32;34856;-74
2022/09/25 10:51:28;;;;;;;5.12;3.55;;;;;;;17.65;61.36;99586.66;4362423;32;34018;-74
2022/09/25 10:54:10;;;;;;;3.62;2.70;;;;;;;17.79;61.01;99591.06;4362245;32;33630;-75
2022/09/25 10:56:38;;;;;;;4.10;2.72;;;;;;;17.78;61.33;99581.22;4348418;32;33990;-74
2022/09/25 10:59:17;;;;;;;4.60;3.25;;;;;;;17.55;61.66;99587.63;4348526;32;34043;-74
2022/09/25 11:01:46;;;;;;;3.75;2.62;;;;;;;17.63;59.99;99586.97;4348506;32;34360;-76
2022/09/25 11:04:28;;;;;;;5.00;2.97;;;;;;;17.37;60.95;99578.34;4348402;32;34631;-74
2022/09/25 11:07:03;;;;;;;7.28;3.35;;;;;;;17.67;61.55;99577.03;4361849;32;33805;-74
2022/09/25 11:09:32;;;;;;;5.15;2.62;;;;;;;17.65;61.16;99565.53;4333917;33;34297;-75
2022/09/25 11:12:23;;;;;;;5.85;3.33;;;;;;;18.11;60.43;99559.25;4358944;32;34240;-76
2022/09/25 11:15:03;;;;;;;6.32;2.92;;;;;;;17.96;60.41;99570.50;4353253;32;33426;-75
2022/09/25 11:17:32;;;;;;;3.97;2.28;;;;;;;18.38;58.35;99568.59;4348923;32;33888;-77
2022/09/25 11:20:20;;;;;;;3.35;2.30;;;;;;;18.13;57.90;99567.19;4348585;32;34329;-76
2022/09/25 11:22:51;;;;;;;3.97;2.42;;;;;;;18.21;57.69;99569.22;4361844;32;34235;-75
2022/09/25 11:25:32;;;;;;;3.70;2.45;;;;;;;17.56;59.91;99570.09;4361966;32;33454;-72
2022/09/25 11:28:27;;;;;;;3.03;2.10;;;;;;;17.99;59.41;99575.38;4335522;33;34103;-71
2022/09/25 11:31:18;;;;;;;5.12;2.30;;;;;;;17.94;58.73;99568.06;4310138;33;33906;-70
2022/09/25 11:34:09;;;;;;;5.55;2.60;;;;;;;17.82;58.98;99576.78;4339138;33;33823;-72
2022/09/25 11:36:45;;;;;;;3.30;2.12;;;;;;;17.87;60.21;99588.78;4333236;33;33735;-71
2022/09/25 11:42:14;;;;;;;3.03;2.00;;;;;;;17.77;60.79;99574.09;4358911;32;33908;-70
2022/09/25 11:44:42;;;;;;;3.00;2.10;;;;;;;18.07;60.67;99576.63;4361350;32;34352;-71
2022/09/25 11:47:18;;;;;;;3.15;2.15;;;;;;;17.94;60.14;99570.81;4361232;32;34362;-70
2022/09/25 11:49:52;;;;;;;2.87;1.98;;;;;;;17.97;60.68;99577.62;4352966;32;34040;-71
2022/09/25 11:52:22;;;;;;;3.90;2.58;;;;;;;17.82;61.48;99574.03;4345413;33;33932;-70
2022/09/25 11:55:11;;;;;;;2.97;2.03;;;;;;;17.40;64.37;99567.56;4346461;33;34247;-72
2022/09/25 11:58:08;;;;;;;3.58;2.58;;;;;;;18.00;61.75;99563.31;4350228;32;33651;-70
2022/09/25 12:00:54;;;;;;;4.85;2.30;;;;;;;17.63;63.08;99560.34;4361396;32;33849;-71
2022/09/25 12:03:55;;;;;;;5.25;3.65;;;;;;;17.94;62.24;99565.31;4361416;32;35579;-70
2022/09/25 12:06:25;;;;;;;3.67;2.60;;;;;;;17.63;64.12;99573.25;4319728;32;34384;-71
2022/09/25 12:09:11;;;;;;;5.53;3.00;;;;;;;17.22;66.36;99566.47;4361078;32;33736;-71
2022/09/25 12:11:42;;;;;;;4.25;2.70;;;;;;;17.38;64.73;99553.34;4361508;32;34654;-70
2022/09/25 12:14:34;;;;;;;3.97;2.47;;;;;;;17.34;65.04;99554.22;4361297;32;33902;-70
2022/09/25 12:17:26;;;;;;;4.10;2.80;;;;;;;17.64;64.40;99558.41;4361191;32;34965;-71